• Join FlightAware (Why Join?)
  • Login
  • US Flag 
05:30AM EDT


 

Airport Tracker/Info


-or-


 

Live Flight TrackerFlight Track Log ✈ N52712 ✈ 12-May-2013 ✈ KBED - KBED

Flight Track Log - Related Links

Times and Time Zones

All times are in EDT time to prevent confusion due to time zone crossing. See the N52712 flight status page for this flight to view local times or setup timezone preferences in your user account.

Time Position Orientation Groundspeed Altitude Reporting Facility
EDT Latitude Longitude Course Direction KTS MPH feet Rate Location/Type
01:59PM 42.4667 -71.3000 28° Northeast 50 58 800  Level KA90
02:00PM 42.4833 -71.3167 324° Northwest 63 72 1,400 840 Climbing KA90
02:01PM 42.4833 -71.3333 270° West 68 78 2,300 300 Climbing KA90
02:02PM 42.4833 -71.3667 270° West 99 114 2,000 -120 Descending KA90
02:03PM 42.5333 -71.3667 360° North 113 130 2,100  Climbing KA90
02:04PM 42.5667 -71.3667 360° North 113 130 2,000  Descending KA90
02:05PM 42.4699 -71.2890 28° Northeast  Level Estimated
02:05PM 42.5833 -71.3667 360° North 105 121 2,200  Level KA90
02:06PM 42.6000 -71.3500 36° Northeast 100 115 2,600 420 Climbing KA90
02:07PM 42.6333 -71.3167 36° Northeast 105 121 3,100 120 Climbing KA90
02:08PM 42.6333 -71.2667 90° East 125 144 2,900  Descending KA90
02:09PM 42.6500 -71.2333 56° Northeast 122 140 3,100  Climbing KA90
02:10PM 42.6833 -71.2000 36° Northeast 130 150 3,000 -60 Descending KA90
02:11PM 42.7000 -71.1667 56° Northeast 127 146 3,000 -60 Level KA90
02:12PM 42.7167 -71.1167 66° East 130 150 2,900  Descending KA90
02:13PM 42.7500 -71.0833 36° Northeast 122 140 3,000 -120 Climbing KA90
02:14PM 42.7667 -71.0500 56° Northeast 122 140 2,700 -300 Descending KA90
02:15PM 42.8000 -71.0167 36° Northeast 115 132 2,400 -360 Descending KA90
02:16PM 42.8167 -71.0000 36° Northeast 113 130 2,000 -240 Descending KA90
02:17PM 42.8500 -71.0000 360° North 109 125 2,000  Level KA90
02:18PM 42.8333 -70.9833 144° Southeast 100 115 2,100  Climbing KA90
02:19PM 42.8167 -71.0000 216° Southwest 92 106 2,000 -120 Descending KA90
02:20PM 42.8000 -71.0167 216° Southwest 93 107 1,900 -240 Descending KA90
02:21PM 42.7833 -71.0500 236° Southwest 89 102 1,600 -240 Descending KA90
02:22PM 42.7667 -71.0667 216° Southwest 80 92 1,500 -240 Descending KA90
02:23PM 42.7500 -71.0833 216° Southwest 84 97 1,200 -420 Descending KA90
02:24PM 42.7333 -71.1000 216° Southwest 82 94 700 -180 Descending KA90
02:25PM 42.7167 -71.1333 236° Southwest 86 99 900 300 Climbing KA90
02:26PM 42.7000 -71.1500 216° Southwest 83 96 1,400 420 Climbing KA90
02:27PM 42.6667 -71.1667 200° South 82 94 1,900 240 Climbing KA90
02:28PM 42.6667 -71.1833 270° West 82 94 2,000  Climbing KA90
02:29PM 42.6500 -71.2000 216° Southwest 86 99 2,000 -60 Level KA90
02:30PM 42.6333 -71.2167 216° Southwest 106 122 1,900 -120 Descending KA90
02:31PM 42.6500 -71.2000 36° Northeast 99 114 1,800 60 Descending KA90
02:32PM 42.6333 -71.1667 124° Southeast 98 113 2,100 240 Climbing KA90